sensor_id;sensor_type;location;lat;lon;timestamp;temperature;humidity
2050;DHT22;8478;49.208;8.806;2022-08-02T00:01:00;22.70;99.90
2050;DHT22;8478;49.208;8.806;2022-08-02T00:03:26;22.70;99.90
2050;DHT22;8478;49.208;8.806;2022-08-02T00:05:52;22.70;99.90
2050;DHT22;8478;49.208;8.806;2022-08-02T00:08:17;22.60;99.90
2050;DHT22;8478;49.208;8.806;2022-08-02T00:10:43;22.70;99.90
2050;DHT22;8478;49.208;8.806;2022-08-02T00:13:09;22.60;99.90
2050;DHT22;8478;49.208;8.806;2022-08-02T00:15:34;22.60;99.90
2050;DHT22;8478;49.208;8.806;2022-08-02T00:18:00;22.60;99.90
2050;DHT22;8478;49.208;8.806;2022-08-02T00:20:26;22.60;99.90
2050;DHT22;8478;49.208;8.806;2022-08-02T00:22:51;22.60;99.90
2050;DHT22;8478;49.208;8.806;2022-08-02T00:25:17;22.60;99.90
2050;DHT22;8478;49.208;8.806;2022-08-02T00:27:43;22.60;99.90
2050;DHT22;8478;49.208;8.806;2022-08-02T00:30:09;22.60;99.90
2050;DHT22;8478;49.208;8.806;2022-08-02T00:32:34;22.60;99.90
2050;DHT22;8478;49.208;8.806;2022-08-02T00:35:00;22.60;99.90
2050;DHT22;8478;49.208;8.806;2022-08-02T00:37:26;22.60;99.90
2050;DHT22;8478;49.208;8.806;2022-08-02T00:39:51;22.60;99.90
2050;DHT22;8478;49.208;8.806;2022-08-02T00:42:17;22.60;99.90
2050;DHT22;8478;49.208;8.806;2022-08-02T00:44:43;22.60;99.90
2050;DHT22;8478;49.208;8.806;2022-08-02T00:47:09;22.60;99.90
2050;DHT22;8478;49.208;8.806;2022-08-02T00:49:34;22.60;99.90
2050;DHT22;8478;49.208;8.806;2022-08-02T00:52:00;22.60;99.90
2050;DHT22;8478;49.208;8.806;2022-08-02T00:54:26;22.60;99.90
2050;DHT22;8478;49.208;8.806;2022-08-02T00:56:51;22.60;99.90
2050;DHT22;8478;49.208;8.806;2022-08-02T00:59:17;22.60;99.90
2050;DHT22;8478;49.208;8.806;2022-08-02T01:01:43;22.50;99.90
2050;DHT22;8478;49.208;8.806;2022-08-02T01:04:11;22.50;99.90
2050;DHT22;8478;49.208;8.806;2022-08-02T01:06:39;22.50;99.90
2050;DHT22;8478;49.208;8.806;2022-08-02T01:09:05;22.50;99.90
2050;DHT22;8478;49.208;8.806;2022-08-02T01:11:32;22.50;99.90
2050;DHT22;8478;49.208;8.806;2022-08-02T01:14:05;22.50;99.90
2050;DHT22;8478;49.208;8.806;2022-08-02T01:16:35;22.50;99.90
2050;DHT22;8478;49.208;8.806;2022-08-02T01:19:14;22.50;99.90
2050;DHT22;8478;49.208;8.806;2022-08-02T01:27:23;22.50;99.90
2050;DHT22;8478;49.208;8.806;2022-08-02T01:29:55;22.50;99.90
2050;DHT22;8478;49.208;8.806;2022-08-02T01:32:27;22.50;99.90
2050;DHT22;8478;49.208;8.806;2022-08-02T01:34:58;22.50;99.90
2050;DHT22;8478;49.208;8.806;2022-08-02T01:37:31;22.50;99.90
2050;DHT22;8478;49.208;8.806;2022-08-02T01:40:06;22.50;99.90
2050;DHT22;8478;49.208;8.806;2022-08-02T01:42:33;22.50;99.90
2050;DHT22;8478;49.208;8.806;2022-08-02T01:45:00;22.50;99.90
2050;DHT22;8478;49.208;8.806;2022-08-02T01:47:30;22.50;99.90
2050;DHT22;8478;49.208;8.806;2022-08-02T01:49:59;22.50;99.90
2050;DHT22;8478;49.208;8.806;2022-08-02T01:52:29;22.50;99.90
2050;DHT22;8478;49.208;8.806;2022-08-02T01:57:47;22.50;99.90
2050;DHT22;8478;49.208;8.806;2022-08-02T02:00:14;22.50;99.90
2050;DHT22;8478;49.208;8.806;2022-08-02T02:02:42;22.50;99.90
2050;DHT22;8478;49.208;8.806;2022-08-02T02:05:18;22.50;99.90
2050;DHT22;8478;49.208;8.806;2022-08-02T02:07:47;22.50;99.90
2050;DHT22;8478;49.208;8.806;2022-08-02T02:10:18;22.50;99.90
2050;DHT22;8478;49.208;8.806;2022-08-02T02:12:48;22.50;99.90
2050;DHT22;8478;49.208;8.806;2022-08-02T02:15:15;22.50;99.90
2050;DHT22;8478;49.208;8.806;2022-08-02T02:17:43;22.50;99.90
2050;DHT22;8478;49.208;8.806;2022-08-02T02:20:13;22.50;99.90
2050;DHT22;8478;49.208;8.806;2022-08-02T02:22:39;22.50;99.90
2050;DHT22;8478;49.208;8.806;2022-08-02T02:25:06;22.50;99.90
2050;DHT22;8478;49.208;8.806;2022-08-02T02:27:33;22.40;99.90
2050;DHT22;8478;49.208;8.806;2022-08-02T02:30:00;22.40;99.90
2050;DHT22;8478;49.208;8.806;2022-08-02T02:32:28;22.40;99.90
2050;DHT22;8478;49.208;8.806;2022-08-02T02:34:54;22.40;99.90
2050;DHT22;8478;49.208;8.806;2022-08-02T02:37:22;22.40;99.90
2050;DHT22;8478;49.208;8.806;2022-08-02T02:39:50;22.40;99.90
2050;DHT22;8478;49.208;8.806;2022-08-02T02:42:18;22.40;99.90
2050;DHT22;8478;49.208;8.806;2022-08-02T02:44:47;22.40;99.90
2050;DHT22;8478;49.208;8.806;2022-08-02T02:47:14;22.40;99.90
2050;DHT22;8478;49.208;8.806;2022-08-02T02:49:43;22.40;99.90
2050;DHT22;8478;49.208;8.806;2022-08-02T02:52:09;22.40;99.90
2050;DHT22;8478;49.208;8.806;2022-08-02T02:54:36;22.40;99.90
2050;DHT22;8478;49.208;8.806;2022-08-02T02:57:04;22.40;99.90
2050;DHT22;8478;49.208;8.806;2022-08-02T02:59:33;22.40;99.90
2050;DHT22;8478;49.208;8.806;2022-08-02T03:01:59;22.40;99.90
2050;DHT22;8478;49.208;8.806;2022-08-02T03:04:28;22.40;99.90
2050;DHT22;8478;49.208;8.806;2022-08-02T03:06:55;22.40;99.90
2050;DHT22;8478;49.208;8.806;2022-08-02T03:09:20;22.40;99.90
2050;DHT22;8478;49.208;8.806;2022-08-02T03:11:46;22.40;99.90
2050;DHT22;8478;49.208;8.806;2022-08-02T03:14:12;22.30;99.90
2050;DHT22;8478;49.208;8.806;2022-08-02T03:16:47;22.30;99.90
2050;DHT22;8478;49.208;8.806;2022-08-02T03:19:13;22.30;99.90
2050;DHT22;8478;49.208;8.806;2022-08-02T03:21:43;22.30;99.90
2050;DHT22;8478;49.208;8.806;2022-08-02T03:24:09;22.30;99.90
2050;DHT22;8478;49.208;8.806;2022-08-02T03:26:36;22.30;99.90
2050;DHT22;8478;49.208;8.806;2022-08-02T03:29:01;22.30;99.90
2050;DHT22;8478;49.208;8.806;2022-08-02T03:31:27;22.30;99.90
2050;DHT22;8478;49.208;8.806;2022-08-02T03:33:55;22.30;99.90
2050;DHT22;8478;49.208;8.806;2022-08-02T03:36:25;22.30;99.90
2050;DHT22;8478;49.208;8.806;2022-08-02T03:38:52;22.30;99.90
2050;DHT22;8478;49.208;8.806;2022-08-02T03:41:19;22.30;99.90
2050;DHT22;8478;49.208;8.806;2022-08-02T03:43:46;22.30;99.90
2050;DHT22;8478;49.208;8.806;2022-08-02T03:46:14;22.30;99.90
2050;DHT22;8478;49.208;8.806;2022-08-02T03:48:41;22.30;99.90
2050;DHT22;8478;49.208;8.806;2022-08-02T03:51:08;22.30;99.90
2050;DHT22;8478;49.208;8.806;2022-08-02T03:53:34;22.30;99.90
2050;DHT22;8478;49.208;8.806;2022-08-02T03:56:01;22.20;99.90
2050;DHT22;8478;49.208;8.806;2022-08-02T03:58:27;22.30;99.90
2050;DHT22;8478;49.208;8.806;2022-08-02T04:00:55;22.20;99.90
2050;DHT22;8478;49.208;8.806;2022-08-02T04:03:21;22.30;99.90
2050;DHT22;8478;49.208;8.806;2022-08-02T04:05:47;22.30;99.90
2050;DHT22;8478;49.208;8.806;2022-08-02T04:08:13;22.20;99.90
2050;DHT22;8478;49.208;8.806;2022-08-02T04:10:39;22.30;99.90
2050;DHT22;8478;49.208;8.806;2022-08-02T04:13:30;22.30;99.90
2050;DHT22;8478;49.208;8.806;2022-08-02T04:16:07;22.30;99.90
2050;DHT22;8478;49.208;8.806;2022-08-02T04:18:39;22.30;99.90
2050;DHT22;8478;49.208;8.806;2022-08-02T04:21:05;22.30;99.90
2050;DHT22;8478;49.208;8.806;2022-08-02T04:23:33;22.30;99.90
2050;DHT22;8478;49.208;8.806;2022-08-02T04:26:02;22.30;99.90
2050;DHT22;8478;49.208;8.806;2022-08-02T04:28:28;22.30;99.90
2050;DHT22;8478;49.208;8.806;2022-08-02T04:30:55;22.30;99.90
2050;DHT22;8478;49.208;8.806;2022-08-02T04:33:25;22.20;99.90
2050;DHT22;8478;49.208;8.806;2022-08-02T04:35:51;22.30;99.90
2050;DHT22;8478;49.208;8.806;2022-08-02T04:38:17;22.30;99.90
2050;DHT22;8478;49.208;8.806;2022-08-02T04:40:50;22.20;99.90
2050;DHT22;8478;49.208;8.806;2022-08-02T04:43:16;22.20;99.90
2050;DHT22;8478;49.208;8.806;2022-08-02T04:45:43;22.20;99.90
2050;DHT22;8478;49.208;8.806;2022-08-02T04:48:09;22.20;99.90
2050;DHT22;8478;49.208;8.806;2022-08-02T04:50:35;22.20;99.90
2050;DHT22;8478;49.208;8.806;2022-08-02T04:53:00;22.20;99.90
2050;DHT22;8478;49.208;8.806;2022-08-02T04:55:26;22.20;99.90
2050;DHT22;8478;49.208;8.806;2022-08-02T04:57:56;22.20;99.90
2050;DHT22;8478;49.208;8.806;2022-08-02T05:00:23;22.20;99.90
2050;DHT22;8478;49.208;8.806;2022-08-02T05:02:49;22.20;99.90
2050;DHT22;8478;49.208;8.806;2022-08-02T05:05:16;22.20;99.90
2050;DHT22;8478;49.208;8.806;2022-08-02T05:07:41;22.20;99.90
2050;DHT22;8478;49.208;8.806;2022-08-02T05:10:07;22.20;99.90
2050;DHT22;8478;49.208;8.806;2022-08-02T05:12:33;22.20;99.90
2050;DHT22;8478;49.208;8.806;2022-08-02T05:14:59;22.10;99.90
2050;DHT22;8478;49.208;8.806;2022-08-02T05:17:24;22.10;99.90
2050;DHT22;8478;49.208;8.806;2022-08-02T05:19:50;22.10;99.90
2050;DHT22;8478;49.208;8.806;2022-08-02T05:22:16;22.10;99.90
2050;DHT22;8478;49.208;8.806;2022-08-02T05:24:42;22.10;99.90
2050;DHT22;8478;49.208;8.806;2022-08-02T05:27:07;22.10;99.90
2050;DHT22;8478;49.208;8.806;2022-08-02T05:29:33;22.10;99.90
2050;DHT22;8478;49.208;8.806;2022-08-02T05:31:59;22.10;99.90
2050;DHT22;8478;49.208;8.806;2022-08-02T05:34:24;22.10;99.90
2050;DHT22;8478;49.208;8.806;2022-08-02T05:36:50;22.10;99.90
2050;DHT22;8478;49.208;8.806;2022-08-02T05:39:16;22.10;99.90
2050;DHT22;8478;49.208;8.806;2022-08-02T05:41:41;22.10;99.90
2050;DHT22;8478;49.208;8.806;2022-08-02T05:44:07;22.10;99.90
2050;DHT22;8478;49.208;8.806;2022-08-02T05:46:33;22.10;99.90
2050;DHT22;8478;49.208;8.806;2022-08-02T05:48:58;22.10;99.90
2050;DHT22;8478;49.208;8.806;2022-08-02T05:51:33;22.10;99.90
2050;DHT22;8478;49.208;8.806;2022-08-02T05:54:26;22.10;99.90
2050;DHT22;8478;49.208;8.806;2022-08-02T05:59:51;22.10;99.90
2050;DHT22;8478;49.208;8.806;2022-08-02T06:05:23;22.10;99.90
2050;DHT22;8478;49.208;8.806;2022-08-02T06:07:52;22.00;99.90
2050;DHT22;8478;49.208;8.806;2022-08-02T06:10:20;22.10;99.90
2050;DHT22;8478;49.208;8.806;2022-08-02T06:15:19;22.10;99.90
2050;DHT22;8478;49.208;8.806;2022-08-02T06:17:45;22.00;99.90
2050;DHT22;8478;49.208;8.806;2022-08-02T06:20:13;22.00;99.90
2050;DHT22;8478;49.208;8.806;2022-08-02T06:22:40;22.00;99.90
2050;DHT22;8478;49.208;8.806;2022-08-02T06:25:07;22.00;99.90
2050;DHT22;8478;49.208;8.806;2022-08-02T06:27:34;22.00;99.90
2050;DHT22;8478;49.208;8.806;2022-08-02T06:30:01;22.00;99.90
2050;DHT22;8478;49.208;8.806;2022-08-02T06:32:27;22.00;99.90
2050;DHT22;8478;49.208;8.806;2022-08-02T06:34:52;22.00;99.90
2050;DHT22;8478;49.208;8.806;2022-08-02T06:39:58;22.00;99.90
2050;DHT22;8478;49.208;8.806;2022-08-02T06:42:50;22.00;99.90
2050;DHT22;8478;49.208;8.806;2022-08-02T06:45:17;22.10;99.90
2050;DHT22;8478;49.208;8.806;2022-08-02T06:47:43;22.10;99.90
2050;DHT22;8478;49.208;8.806;2022-08-02T06:50:09;22.10;99.90
2050;DHT22;8478;49.208;8.806;2022-08-02T06:52:35;22.10;99.90
2050;DHT22;8478;49.208;8.806;2022-08-02T06:55:03;22.10;99.90
2050;DHT22;8478;49.208;8.806;2022-08-02T06:57:30;22.10;99.90
2050;DHT22;8478;49.208;8.806;2022-08-02T06:59:57;22.10;99.90
2050;DHT22;8478;49.208;8.806;2022-08-02T07:02:25;22.10;99.90
2050;DHT22;8478;49.208;8.806;2022-08-02T07:04:51;22.10;99.90
2050;DHT22;8478;49.208;8.806;2022-08-02T07:07:17;22.10;99.90
2050;DHT22;8478;49.208;8.806;2022-08-02T07:09:42;22.10;99.90
2050;DHT22;8478;49.208;8.806;2022-08-02T07:12:08;22.10;99.90
2050;DHT22;8478;49.208;8.806;2022-08-02T07:14:34;22.10;99.90
2050;DHT22;8478;49.208;8.806;2022-08-02T07:16:59;22.10;99.90
2050;DHT22;8478;49.208;8.806;2022-08-02T07:19:25;22.10;99.90
2050;DHT22;8478;49.208;8.806;2022-08-02T07:21:50;22.10;99.90
2050;DHT22;8478;49.208;8.806;2022-08-02T07:24:16;22.10;99.90
2050;DHT22;8478;49.208;8.806;2022-08-02T07:26:42;22.10;99.90
2050;DHT22;8478;49.208;8.806;2022-08-02T07:29:08;22.10;99.90
2050;DHT22;8478;49.208;8.806;2022-08-02T07:31:33;22.10;99.90
2050;DHT22;8478;49.208;8.806;2022-08-02T07:33:59;22.10;99.90
2050;DHT22;8478;49.208;8.806;2022-08-02T07:36:25;22.10;99.90
2050;DHT22;8478;49.208;8.806;2022-08-02T07:38:50;22.10;99.90
2050;DHT22;8478;49.208;8.806;2022-08-02T07:41:16;22.10;99.90
2050;DHT22;8478;49.208;8.806;2022-08-02T07:43:42;22.10;99.90
2050;DHT22;8478;49.208;8.806;2022-08-02T07:46:07;22.00;99.90
2050;DHT22;8478;49.208;8.806;2022-08-02T07:48:33;22.00;99.90
2050;DHT22;8478;49.208;8.806;2022-08-02T07:50:59;22.00;99.90
2050;DHT22;8478;49.208;8.806;2022-08-02T07:53:24;22.00;99.90
2050;DHT22;8478;49.208;8.806;2022-08-02T07:55:50;22.10;99.90
2050;DHT22;8478;49.208;8.806;2022-08-02T07:58:15;22.00;99.90
2050;DHT22;8478;49.208;8.806;2022-08-02T08:00:42;22.10;99.90
2050;DHT22;8478;49.208;8.806;2022-08-02T08:03:08;22.10;99.90
2050;DHT22;8478;49.208;8.806;2022-08-02T08:05:35;22.10;99.90
2050;DHT22;8478;49.208;8.806;2022-08-02T08:08:01;22.10;99.90
2050;DHT22;8478;49.208;8.806;2022-08-02T08:10:27;22.10;99.90
2050;DHT22;8478;49.208;8.806;2022-08-02T08:12:52;22.00;99.90
2050;DHT22;8478;49.208;8.806;2022-08-02T08:15:20;22.00;99.90
2050;DHT22;8478;49.208;8.806;2022-08-02T08:17:45;22.00;99.90
2050;DHT22;8478;49.208;8.806;2022-08-02T08:20:11;22.00;99.90
2050;DHT22;8478;49.208;8.806;2022-08-02T08:22:37;22.10;99.90
2050;DHT22;8478;49.208;8.806;2022-08-02T08:25:03;22.10;99.90
2050;DHT22;8478;49.208;8.806;2022-08-02T08:27:28;22.10;99.90
2050;DHT22;8478;49.208;8.806;2022-08-02T08:29:54;22.20;99.90
2050;DHT22;8478;49.208;8.806;2022-08-02T08:32:20;22.10;99.90
2050;DHT22;8478;49.208;8.806;2022-08-02T08:34:46;22.20;99.90
2050;DHT22;8478;49.208;8.806;2022-08-02T08:37:13;22.20;99.90
2050;DHT22;8478;49.208;8.806;2022-08-02T08:39:38;22.10;99.90
2050;DHT22;8478;49.208;8.806;2022-08-02T08:42:06;22.10;99.90
2050;DHT22;8478;49.208;8.806;2022-08-02T08:44:33;22.10;99.90
2050;DHT22;8478;49.208;8.806;2022-08-02T08:47:00;22.10;99.90
2050;DHT22;8478;49.208;8.806;2022-08-02T08:49:39;22.10;99.90
2050;DHT22;8478;49.208;8.806;2022-08-02T08:52:06;22.10;99.90
2050;DHT22;8478;49.208;8.806;2022-08-02T08:54:32;22.10;99.90
2050;DHT22;8478;49.208;8.806;2022-08-02T08:57:01;22.10;99.90
2050;DHT22;8478;49.208;8.806;2022-08-02T08:59:28;22.10;99.90
2050;DHT22;8478;49.208;8.806;2022-08-02T09:01:54;22.20;99.90
2050;DHT22;8478;49.208;8.806;2022-08-02T09:04:21;22.20;99.90
2050;DHT22;8478;49.208;8.806;2022-08-02T09:06:47;22.20;99.90
2050;DHT22;8478;49.208;8.806;2022-08-02T09:09:13;22.20;99.90
2050;DHT22;8478;49.208;8.806;2022-08-02T09:11:38;22.20;99.90
2050;DHT22;8478;49.208;8.806;2022-08-02T09:14:04;22.20;99.90
2050;DHT22;8478;49.208;8.806;2022-08-02T09:16:31;22.20;99.90
2050;DHT22;8478;49.208;8.806;2022-08-02T09:18:58;22.20;99.90
2050;DHT22;8478;49.208;8.806;2022-08-02T09:21:33;22.20;99.90
2050;DHT22;8478;49.208;8.806;2022-08-02T09:24:00;22.20;99.90
2050;DHT22;8478;49.208;8.806;2022-08-02T09:26:26;22.20;99.90
2050;DHT22;8478;49.208;8.806;2022-08-02T09:28:59;22.20;99.90
2050;DHT22;8478;49.208;8.806;2022-08-02T09:31:25;22.20;99.90
2050;DHT22;8478;49.208;8.806;2022-08-02T09:33:53;22.20;99.90
2050;DHT22;8478;49.208;8.806;2022-08-02T09:36:19;22.20;99.90
2050;DHT22;8478;49.208;8.806;2022-08-02T09:41:26;22.20;99.90
2050;DHT22;8478;49.208;8.806;2022-08-02T09:43:53;22.10;99.90
2050;DHT22;8478;49.208;8.806;2022-08-02T09:46:28;22.20;99.90
2050;DHT22;8478;49.208;8.806;2022-08-02T09:49:09;22.20;99.90
2050;DHT22;8478;49.208;8.806;2022-08-02T09:51:39;22.20;99.90
2050;DHT22;8478;49.208;8.806;2022-08-02T09:54:24;22.20;99.90
2050;DHT22;8478;49.208;8.806;2022-08-02T09:56:54;22.10;99.90
2050;DHT22;8478;49.208;8.806;2022-08-02T09:59:21;22.20;99.90
2050;DHT22;8478;49.208;8.806;2022-08-02T10:01:50;22.20;99.90
2050;DHT22;8478;49.208;8.806;2022-08-02T10:04:22;22.20;99.90
2050;DHT22;8478;49.208;8.806;2022-08-02T10:06:49;22.20;99.90
2050;DHT22;8478;49.208;8.806;2022-08-02T10:09:15;22.20;99.90
2050;DHT22;8478;49.208;8.806;2022-08-02T10:11:41;22.20;99.90
2050;DHT22;8478;49.208;8.806;2022-08-02T10:14:09;22.20;99.90
2050;DHT22;8478;49.208;8.806;2022-08-02T10:16:44;22.20;99.90
2050;DHT22;8478;49.208;8.806;2022-08-02T10:19:10;22.20;99.90
2050;DHT22;8478;49.208;8.806;2022-08-02T10:21:39;22.20;99.90
2050;DHT22;8478;49.208;8.806;2022-08-02T10:24:22;22.20;99.90
2050;DHT22;8478;49.208;8.806;2022-08-02T10:26:49;22.20;99.90
2050;DHT22;8478;49.208;8.806;2022-08-02T10:29:18;22.20;99.90
2050;DHT22;8478;49.208;8.806;2022-08-02T10:31:53;22.20;99.90
2050;DHT22;8478;49.208;8.806;2022-08-02T10:34:23;22.20;99.90
2050;DHT22;8478;49.208;8.806;2022-08-02T10:36:52;22.20;99.90
2050;DHT22;8478;49.208;8.806;2022-08-02T10:39:18;22.20;99.90
2050;DHT22;8478;49.208;8.806;2022-08-02T10:41:50;22.20;99.90
2050;DHT22;8478;49.208;8.806;2022-08-02T10:44:27;22.20;99.90
2050;DHT22;8478;49.208;8.806;2022-08-02T10:52:26;22.20;99.90
2050;DHT22;8478;49.208;8.806;2022-08-02T10:55:00;22.20;99.90
2050;DHT22;8478;49.208;8.806;2022-08-02T10:57:28;22.20;99.90
2050;DHT22;8478;49.208;8.806;2022-08-02T11:00:10;22.20;99.90
2050;DHT22;8478;49.208;8.806;2022-08-02T11:02:38;22.20;99.90
2050;DHT22;8478;49.208;8.806;2022-08-02T11:05:31;22.20;99.90
2050;DHT22;8478;49.208;8.806;2022-08-02T11:07:57;22.30;99.90
2050;DHT22;8478;49.208;8.806;2022-08-02T11:10:30;22.30;99.90
2050;DHT22;8478;49.208;8.806;2022-08-02T11:13:09;22.30;99.90
2050;DHT22;8478;49.208;8.806;2022-08-02T11:16:00;22.30;99.90
2050;DHT22;8478;49.208;8.806;2022-08-02T11:21:25;22.30;99.90
2050;DHT22;8478;49.208;8.806;2022-08-02T11:23:52;22.30;99.90
2050;DHT22;8478;49.208;8.806;2022-08-02T11:29:03;22.40;99.90
2050;DHT22;8478;49.208;8.806;2022-08-02T11:31:38;22.40;99.90
2050;DHT22;8478;49.208;8.806;2022-08-02T11:34:04;22.40;99.90
2050;DHT22;8478;49.208;8.806;2022-08-02T11:36:30;22.40;99.90
2050;DHT22;8478;49.208;8.806;2022-08-02T11:39:16;22.40;99.90
2050;DHT22;8478;49.208;8.806;2022-08-02T11:41:53;22.40;99.90
2050;DHT22;8478;49.208;8.806;2022-08-02T11:44:19;22.40;99.90
2050;DHT22;8478;49.208;8.806;2022-08-02T11:47:00;22.40;99.90
2050;DHT22;8478;49.208;8.806;2022-08-02T11:49:26;22.40;99.90
2050;DHT22;8478;49.208;8.806;2022-08-02T11:52:00;22.40;99.90
2050;DHT22;8478;49.208;8.806;2022-08-02T11:54:31;22.40;99.90
2050;DHT22;8478;49.208;8.806;2022-08-02T11:57:16;22.40;99.90
2050;DHT22;8478;49.208;8.806;2022-08-02T11:59:44;22.40;99.90
2050;DHT22;8478;49.208;8.806;2022-08-02T12:02:11;22.40;99.90
2050;DHT22;8478;49.208;8.806;2022-08-02T12:04:37;22.40;99.90
2050;DHT22;8478;49.208;8.806;2022-08-02T12:07:04;22.40;99.90
2050;DHT22;8478;49.208;8.806;2022-08-02T12:09:32;22.40;99.90
2050;DHT22;8478;49.208;8.806;2022-08-02T12:11:59;22.40;99.90
2050;DHT22;8478;49.208;8.806;2022-08-02T12:14:27;22.50;99.90
2050;DHT22;8478;49.208;8.806;2022-08-02T12:16:53;22.50;99.90
2050;DHT22;8478;49.208;8.806;2022-08-02T12:19:38;22.50;99.90
2050;DHT22;8478;49.208;8.806;2022-08-02T12:25:19;22.50;99.90
2050;DHT22;8478;49.208;8.806;2022-08-02T12:27:46;22.50;99.90
2050;DHT22;8478;49.208;8.806;2022-08-02T12:30:15;22.50;99.90
2050;DHT22;8478;49.208;8.806;2022-08-02T12:32:41;22.50;99.90
2050;DHT22;8478;49.208;8.806;2022-08-02T12:35:08;22.50;99.90
2050;DHT22;8478;49.208;8.806;2022-08-02T12:37:35;22.50;99.90
2050;DHT22;8478;49.208;8.806;2022-08-02T12:45:20;22.50;99.90
2050;DHT22;8478;49.208;8.806;2022-08-02T12:47:48;22.50;99.90
2050;DHT22;8478;49.208;8.806;2022-08-02T12:50:24;22.50;99.90
2050;DHT22;8478;49.208;8.806;2022-08-02T12:53:01;22.50;99.90
2050;DHT22;8478;49.208;8.806;2022-08-02T12:55:27;22.50;99.90
2050;DHT22;8478;49.208;8.806;2022-08-02T12:57:57;22.50;99.90
2050;DHT22;8478;49.208;8.806;2022-08-02T13:00:25;22.50;99.90
2050;DHT22;8478;49.208;8.806;2022-08-02T13:02:51;22.50;99.90
2050;DHT22;8478;49.208;8.806;2022-08-02T13:05:17;22.50;99.90
2050;DHT22;8478;49.208;8.806;2022-08-02T13:07:43;22.50;99.90
2050;DHT22;8478;49.208;8.806;2022-08-02T13:10:09;22.50;99.90
2050;DHT22;8478;49.208;8.806;2022-08-02T13:12:35;22.60;99.90
2050;DHT22;8478;49.208;8.806;2022-08-02T13:15:02;22.50;99.90
2050;DHT22;8478;49.208;8.806;2022-08-02T13:17:28;22.50;99.90
2050;DHT22;8478;49.208;8.806;2022-08-02T13:19:53;22.50;99.90
2050;DHT22;8478;49.208;8.806;2022-08-02T13:22:19;22.60;99.90
2050;DHT22;8478;49.208;8.806;2022-08-02T13:24:45;22.60;99.90
2050;DHT22;8478;49.208;8.806;2022-08-02T13:27:13;22.60;99.90
2050;DHT22;8478;49.208;8.806;2022-08-02T13:29:39;22.60;99.90
2050;DHT22;8478;49.208;8.806;2022-08-02T13:32:05;22.60;99.90
2050;DHT22;8478;49.208;8.806;2022-08-02T13:34:30;22.60;99.90
2050;DHT22;8478;49.208;8.806;2022-08-02T13:36:56;22.60;99.90
2050;DHT22;8478;49.208;8.806;2022-08-02T13:39:22;22.60;99.90
2050;DHT22;8478;49.208;8.806;2022-08-02T13:41:47;22.60;99.90
2050;DHT22;8478;49.208;8.806;2022-08-02T13:44:13;22.70;99.90
2050;DHT22;8478;49.208;8.806;2022-08-02T13:46:39;22.70;99.90
2050;DHT22;8478;49.208;8.806;2022-08-02T13:49:05;22.70;99.90
2050;DHT22;8478;49.208;8.806;2022-08-02T13:51:31;22.70;99.90
2050;DHT22;8478;49.208;8.806;2022-08-02T13:53:56;22.70;99.90
2050;DHT22;8478;49.208;8.806;2022-08-02T13:56:22;22.70;99.90
2050;DHT22;8478;49.208;8.806;2022-08-02T13:58:48;22.70;99.90
2050;DHT22;8478;49.208;8.806;2022-08-02T14:01:13;22.70;99.90
2050;DHT22;8478;49.208;8.806;2022-08-02T14:03:39;22.70;99.90
2050;DHT22;8478;49.208;8.806;2022-08-02T14:06:05;22.70;99.90
2050;DHT22;8478;49.208;8.806;2022-08-02T14:08:31;22.70;99.90
2050;DHT22;8478;49.208;8.806;2022-08-02T14:10:57;22.70;99.90
2050;DHT22;8478;49.208;8.806;2022-08-02T14:13:23;22.70;99.90
2050;DHT22;8478;49.208;8.806;2022-08-02T14:15:49;22.70;99.90
2050;DHT22;8478;49.208;8.806;2022-08-02T14:18:15;22.70;99.90
2050;DHT22;8478;49.208;8.806;2022-08-02T14:20:43;22.80;99.90
2050;DHT22;8478;49.208;8.806;2022-08-02T14:23:09;22.80;99.90
2050;DHT22;8478;49.208;8.806;2022-08-02T14:25:35;22.80;99.90
2050;DHT22;8478;49.208;8.806;2022-08-02T14:28:02;22.80;99.90
2050;DHT22;8478;49.208;8.806;2022-08-02T14:30:28;22.80;99.90
2050;DHT22;8478;49.208;8.806;2022-08-02T14:32:54;22.80;99.90
2050;DHT22;8478;49.208;8.806;2022-08-02T14:35:20;22.80;99.90
2050;DHT22;8478;49.208;8.806;2022-08-02T14:37:45;22.80;99.90
2050;DHT22;8478;49.208;8.806;2022-08-02T14:40:11;22.80;99.90
2050;DHT22;8478;49.208;8.806;2022-08-02T14:42:38;22.80;99.90
2050;DHT22;8478;49.208;8.806;2022-08-02T14:45:04;22.80;99.90
2050;DHT22;8478;49.208;8.806;2022-08-02T14:47:30;22.80;99.90
2050;DHT22;8478;49.208;8.806;2022-08-02T14:49:56;22.80;99.90
2050;DHT22;8478;49.208;8.806;2022-08-02T14:52:22;22.80;99.90
2050;DHT22;8478;49.208;8.806;2022-08-02T14:54:47;22.80;99.90
2050;DHT22;8478;49.208;8.806;2022-08-02T14:57:14;22.80;99.90
2050;DHT22;8478;49.208;8.806;2022-08-02T14:59:39;22.80;99.90
2050;DHT22;8478;49.208;8.806;2022-08-02T15:02:05;22.80;99.90
2050;DHT22;8478;49.208;8.806;2022-08-02T15:04:31;22.80;99.90
2050;DHT22;8478;49.208;8.806;2022-08-02T15:06:59;22.80;99.90
2050;DHT22;8478;49.208;8.806;2022-08-02T15:09:26;22.80;99.90
2050;DHT22;8478;49.208;8.806;2022-08-02T15:11:52;22.90;99.90
2050;DHT22;8478;49.208;8.806;2022-08-02T15:14:19;22.80;99.90
2050;DHT22;8478;49.208;8.806;2022-08-02T15:16:45;22.90;99.90
2050;DHT22;8478;49.208;8.806;2022-08-02T15:19:11;22.90;99.90
2050;DHT22;8478;49.208;8.806;2022-08-02T15:21:36;22.90;99.90
2050;DHT22;8478;49.208;8.806;2022-08-02T15:24:02;22.90;99.90
2050;DHT22;8478;49.208;8.806;2022-08-02T15:26:28;22.90;99.90
2050;DHT22;8478;49.208;8.806;2022-08-02T15:28:54;22.90;99.90
2050;DHT22;8478;49.208;8.806;2022-08-02T15:31:21;22.90;99.90
2050;DHT22;8478;49.208;8.806;2022-08-02T15:33:47;22.90;99.90
2050;DHT22;8478;49.208;8.806;2022-08-02T15:36:12;22.90;99.90
2050;DHT22;8478;49.208;8.806;2022-08-02T15:38:38;22.90;99.90
2050;DHT22;8478;49.208;8.806;2022-08-02T15:41:04;22.90;99.90
2050;DHT22;8478;49.208;8.806;2022-08-02T15:43:30;22.90;99.90
2050;DHT22;8478;49.208;8.806;2022-08-02T15:45:55;22.90;99.90
2050;DHT22;8478;49.208;8.806;2022-08-02T15:48:21;22.90;99.90
2050;DHT22;8478;49.208;8.806;2022-08-02T15:50:47;22.90;99.90
2050;DHT22;8478;49.208;8.806;2022-08-02T15:53:12;22.90;99.90
2050;DHT22;8478;49.208;8.806;2022-08-02T15:55:38;22.90;99.90
2050;DHT22;8478;49.208;8.806;2022-08-02T15:58:05;23.00;99.90
2050;DHT22;8478;49.208;8.806;2022-08-02T16:00:32;23.00;99.90
2050;DHT22;8478;49.208;8.806;2022-08-02T16:02:58;23.00;99.90
2050;DHT22;8478;49.208;8.806;2022-08-02T16:05:23;23.00;99.90
2050;DHT22;8478;49.208;8.806;2022-08-02T16:07:49;23.00;99.90
2050;DHT22;8478;49.208;8.806;2022-08-02T16:10:15;23.10;99.90
2050;DHT22;8478;49.208;8.806;2022-08-02T16:12:41;23.20;99.90
2050;DHT22;8478;49.208;8.806;2022-08-02T16:15:08;23.10;99.90
2050;DHT22;8478;49.208;8.806;2022-08-02T16:17:33;23.10;99.90
2050;DHT22;8478;49.208;8.806;2022-08-02T16:19:59;23.10;99.90
2050;DHT22;8478;49.208;8.806;2022-08-02T16:22:25;23.10;99.90
2050;DHT22;8478;49.208;8.806;2022-08-02T16:24:51;23.10;99.90
2050;DHT22;8478;49.208;8.806;2022-08-02T16:27:17;23.10;99.90
2050;DHT22;8478;49.208;8.806;2022-08-02T16:29:43;23.20;99.90
2050;DHT22;8478;49.208;8.806;2022-08-02T16:32:09;23.20;99.90
2050;DHT22;8478;49.208;8.806;2022-08-02T16:34:36;23.20;99.90
2050;DHT22;8478;49.208;8.806;2022-08-02T16:37:02;23.20;99.90
2050;DHT22;8478;49.208;8.806;2022-08-02T16:39:28;23.20;99.90
2050;DHT22;8478;49.208;8.806;2022-08-02T16:41:54;23.20;99.90
2050;DHT22;8478;49.208;8.806;2022-08-02T16:44:20;23.20;99.90
2050;DHT22;8478;49.208;8.806;2022-08-02T16:46:46;23.20;99.90